Time;durP1;ratioP1;P1;durP2;ratioP2;P2;SDS_P1;SDS_P2;PMS_P1;PMS_P2;Temp;Humidity;BMP_temperature;BMP_pressure;BME280_temperature;BME280_humidity;BME280_pressure;Samples;Min_cycle;Max_cycle;Signal;HPM_P1;HPM_P2
2023/02/12 00:00:48;;;;;;;;;16.20;13.60;;;;;11.00;66.41;103175.09;2102460;27;46813;-63
2023/02/12 00:01:48;;;;;;;;;11.25;10.75;;;;;11.00;66.12;103180.44;2103939;28;46689;-64
2023/02/12 00:02:48;;;;;;;;;19.00;16.00;;;;;11.00;66.32;103174.22;2102932;28;46263;-64
2023/02/12 00:03:49;;;;;;;;;15.75;15.25;;;;;11.01;66.32;103179.56;2093660;28;46278;-63
2023/02/12 00:04:49;;;;;;;;;18.50;18.00;;;;;11.01;66.34;103181.31;2092638;28;46799;-63
2023/02/12 00:05:50;;;;;;;;;17.00;15.75;;;;;11.01;66.30;103179.56;2103719;28;46579;-63
2023/02/12 00:06:50;;;;;;;;;18.25;18.25;;;;;11.01;66.44;103178.66;2106491;27;45580;-64
2023/02/12 00:07:52;;;;;;;;;18.25;15.75;;;;;11.03;66.45;103177.81;2104340;28;46504;-63
2023/02/12 00:08:54;;;;;;;;;17.80;14.20;;;;;11.05;66.64;103168.13;2093444;28;46910;-64
2023/02/12 00:09:55;;;;;;;;;21.00;20.20;;;;;11.06;66.50;103175.22;2096997;27;46900;-63
2023/02/12 00:10:55;;;;;;;;;14.25;14.00;;;;;11.08;66.41;103175.25;2109318;27;46467;-64
2023/02/12 00:11:56;;;;;;;;;16.50;14.25;;;;;11.09;66.31;103171.72;2090909;28;46618;-64
2023/02/12 00:12:56;;;;;;;;;17.50;17.25;;;;;11.09;66.64;103164.63;2095633;28;46984;-63
2023/02/12 00:13:57;;;;;;;;;19.00;16.00;;;;;11.09;66.39;103169.06;2111685;27;46403;-64
2023/02/12 00:14:58;;;;;;;;;17.20;16.40;;;;;11.10;66.43;103174.38;2112038;27;46452;-64
2023/02/12 00:15:58;;;;;;;;;17.75;17.25;;;;;11.10;66.48;103171.72;2113820;27;46625;-64
2023/02/12 00:16:58;;;;;;;;;19.50;18.25;;;;;11.11;66.53;103170.84;2112612;27;46813;-64
2023/02/12 00:17:59;;;;;;;;;16.25;16.25;;;;;11.10;66.31;103173.50;2111987;27;46499;-63
2023/02/12 00:18:59;;;;;;;;;15.75;15.75;;;;;11.08;66.52;103167.28;2111329;27;46950;-64
2023/02/12 00:20:00;;;;;;;;;17.50;17.25;;;;;11.09;66.43;103169.06;2105832;27;46563;-63
2023/02/12 00:21:00;;;;;;;;;19.25;15.75;;;;;11.07;66.61;103170.81;2112171;27;46364;-64
2023/02/12 00:22:00;;;;;;;;;19.75;19.00;;;;;11.08;66.33;103169.94;2107250;27;45122;-63
2023/02/12 00:23:01;;;;;;;;;19.00;17.50;;;;;11.06;66.55;103164.59;2107319;27;46336;-63
2023/02/12 00:24:01;;;;;;;;;20.75;19.00;;;;;11.04;66.80;103168.06;2102734;27;46317;-63
2023/02/12 00:25:02;;;;;;;;;19.00;18.00;;;;;11.02;66.56;103168.06;2102379;27;46402;-64
2023/02/12 00:26:07;;;;;;;;;22.20;18.00;;;;;11.01;66.42;103166.28;2101341;27;46273;-64
2023/02/12 00:27:07;;;;;;;;;18.60;16.80;;;;;11.01;66.88;103162.72;2105811;27;46220;-63
2023/02/12 00:28:08;;;;;;;;;21.25;19.00;;;;;11.00;66.82;103167.13;2106026;27;46501;-63
2023/02/12 00:29:09;;;;;;;;;17.25;16.00;;;;;11.01;66.51;103160.97;2110720;27;45939;-65
2023/02/12 00:30:10;;;;;;;;;17.80;15.80;;;;;11.01;66.73;103162.72;2113043;27;46824;-65
2023/02/12 00:31:13;;;;;;;;;17.75;16.75;;;;;11.01;66.94;103160.06;2104530;27;46728;-65
2023/02/12 00:32:18;;;;;;;;;17.80;15.80;;;;;11.03;66.75;103160.97;2101421;28;47038;-64
2023/02/12 00:33:18;;;;;;;;;17.60;16.80;;;;;11.02;66.87;103159.19;2109725;27;46494;-64
2023/02/12 00:34:18;;;;;;;;;21.75;18.00;;;;;11.03;66.98;103163.63;2107772;27;46015;-62
2023/02/12 00:35:19;;;;;;;;;19.25;19.00;;;;;11.05;66.65;103164.53;2113355;27;46238;-62
2023/02/12 00:36:22;;;;;;;;;18.50;18.00;;;;;11.06;66.77;103167.25;2105595;27;46478;-64
2023/02/12 00:37:22;;;;;;;;;16.60;14.60;;;;;11.07;66.74;103170.81;2102304;27;45314;-65
2023/02/12 00:38:23;;;;;;;;;22.75;19.00;;;;;11.07;66.83;103161.06;2101374;28;46691;-64
2023/02/12 00:39:23;;;;;;;;;17.75;16.75;;;;;11.08;66.65;103167.28;2104615;27;46593;-63
2023/02/12 00:40:24;;;;;;;;;19.00;16.75;;;;;11.07;66.79;103155.75;2111193;27;46175;-63
2023/02/12 00:41:25;;;;;;;;;20.25;17.50;;;;;11.08;66.63;103161.97;2108598;27;46124;-63
2023/02/12 00:42:25;;;;;;;;;23.40;21.00;;;;;11.06;66.90;103161.94;2102776;27;46414;-62
2023/02/12 00:43:26;;;;;;;;;21.75;20.00;;;;;11.05;66.81;103165.47;2113302;27;45513;-62
2023/02/12 00:44:26;;;;;;;;;17.75;15.00;;;;;11.03;66.54;103166.28;2103668;27;46329;-65
2023/02/12 00:45:26;;;;;;;;;23.50;21.75;;;;;11.03;67.00;103164.53;2098848;27;46345;-63
2023/02/12 00:46:27;;;;;;;;;28.25;25.25;;;;;11.03;66.82;103168.94;2113635;27;46322;-63
2023/02/12 00:47:27;;;;;;;;;20.75;19.75;;;;;11.04;66.66;103170.72;2112707;27;46751;-63
2023/02/12 00:48:28;;;;;;;;;21.25;21.25;;;;;11.05;67.06;103169.84;2100625;27;46651;-63
2023/02/12 00:49:32;;;;;;;;;21.50;20.75;;;;;11.06;66.95;103171.69;2110997;27;46324;-62
2023/02/12 00:50:33;;;;;;;;;17.00;17.00;;;;;11.08;66.85;103172.59;2104913;27;46971;-64
2023/02/12 00:51:33;;;;;;;;;20.25;19.25;;;;;11.07;66.83;103163.72;2104195;28;46607;-64
2023/02/12 00:52:33;;;;;;;;;18.50;17.00;;;;;11.09;66.99;103166.41;2103711;27;46386;-64
2023/02/12 00:53:34;;;;;;;;;19.50;19.50;;;;;11.09;66.85;103166.41;2110917;27;46281;-65
2023/02/12 00:54:34;;;;;;;;;24.50;23.25;;;;;11.09;66.83;103163.75;2108858;27;46414;-62
2023/02/12 00:55:35;;;;;;;;;21.50;19.75;;;;;11.08;66.92;103170.81;2095001;28;47055;-64
2023/02/12 00:56:35;;;;;;;;;27.50;27.00;;;;;11.09;66.92;103166.41;2093704;28;46593;-64
2023/02/12 00:57:35;;;;;;;;;24.50;22.50;;;;;11.08;66.99;103162.84;2105361;27;46654;-62
2023/02/12 00:58:36;;;;;;;;;19.00;19.00;;;;;11.09;66.96;103166.41;2103605;27;45940;-65
2023/02/12 00:59:38;;;;;;;;;29.25;22.75;;;;;11.09;66.85;103166.41;2104757;27;46781;-63
2023/02/12 01:00:39;;;;;;;;;27.80;23.80;;;;;11.09;66.99;103175.25;2103788;27;46487;-63
2023/02/12 01:01:39;;;;;;;;;21.50;21.00;;;;;11.09;66.84;103167.28;2104355;27;46120;-63
2023/02/12 01:02:39;;;;;;;;;21.50;20.25;;;;;11.08;66.74;103173.47;2096160;28;46221;-63
2023/02/12 01:03:40;;;;;;;;;26.00;24.00;;;;;11.07;66.98;103170.81;2102056;27;46172;-63
2023/02/12 01:04:40;;;;;;;;;21.75;20.25;;;;;11.05;66.87;103164.53;2104059;28;45770;-63
2023/02/12 01:05:41;;;;;;;;;22.00;19.00;;;;;11.03;66.84;103175.16;2102459;27;46081;-63
2023/02/12 01:06:41;;;;;;;;;19.00;18.00;;;;;11.01;66.57;103168.94;2102059;27;46799;-63
2023/02/12 01:07:42;;;;;;;;;24.75;21.75;;;;;11.00;66.71;103168.91;2113196;27;46654;-63
2023/02/12 01:08:42;;;;;;;;;16.50;16.00;;;;;10.97;66.91;103169.75;2105417;27;46497;-64
2023/02/12 01:09:42;;;;;;;;;22.50;19.50;;;;;10.95;66.85;103168.84;2104882;27;46266;-63
2023/02/12 01:10:43;;;;;;;;;17.00;17.00;;;;;10.91;67.01;103172.31;2092986;28;46530;-64
2023/02/12 01:11:43;;;;;;;;;17.00;15.75;;;;;10.89;67.14;103169.63;2098034;28;46923;-64
2023/02/12 01:12:44;;;;;;;;;21.00;17.25;;;;;10.87;67.31;103171.38;2101334;27;46621;-63
2023/02/12 01:13:44;;;;;;;;;20.75;19.00;;;;;10.87;67.31;103167.81;2109753;27;46695;-64
2023/02/12 01:14:44;;;;;;;;;19.50;18.25;;;;;10.86;67.24;103174.88;2104197;27;46887;-64
2023/02/12 01:15:44;;;;;;;;;19.25;18.25;;;;;10.84;67.40;103168.66;2112679;27;46771;-64
2023/02/12 01:16:45;;;;;;;;;20.50;17.25;;;;;10.83;67.32;103172.19;2112755;27;46759;-63
2023/02/12 01:17:45;;;;;;;;;19.00;17.75;;;;;10.82;67.26;103167.75;2112793;27;46208;-63
2023/02/12 01:18:47;;;;;;;;;21.50;20.00;;;;;10.83;67.22;103172.19;2106288;27;46289;-63
2023/02/12 01:19:47;;;;;;;;;18.40;17.00;;;;;10.82;67.10;103174.81;2105119;27;46656;-64
2023/02/12 01:20:47;;;;;;;;;19.75;17.25;;;;;10.82;67.20;103161.53;2098924;27;46361;-65
2023/02/12 01:21:48;;;;;;;;;18.75;17.25;;;;;10.80;67.48;103169.50;2102399;27;46485;-65
2023/02/12 01:22:48;;;;;;;;;14.75;14.75;;;;;10.79;67.09;103162.38;2103392;27;46587;-63
2023/02/12 01:23:49;;;;;;;;;16.00;13.25;;;;;10.76;67.61;103164.09;2104723;27;46281;-63
2023/02/12 01:24:49;;;;;;;;;17.00;16.00;;;;;10.74;67.51;103164.06;2106950;27;46319;-65
2023/02/12 01:25:49;;;;;;;;;16.75;16.75;;;;;10.71;67.41;103172.00;2113328;27;46648;-64
2023/02/12 01:26:50;;;;;;;;;17.25;16.25;;;;;10.67;67.39;103162.19;2105193;27;46858;-63
2023/02/12 01:27:53;;;;;;;;;15.75;15.50;;;;;10.66;67.46;103163.03;2104941;27;46247;-65
2023/02/12 01:29:00;;;;;;;;;16.20;16.20;;;;;10.67;67.71;103170.16;2104024;27;46142;-64
2023/02/12 01:30:00;;;;;;;;;21.20;18.20;;;;;10.70;67.85;103164.00;2104625;27;46615;-65
2023/02/12 01:31:03;;;;;;;;;16.50;15.25;;;;;10.71;67.52;103161.38;2103575;27;46263;-64
2023/02/12 01:32:04;;;;;;;;;18.40;16.00;;;;;10.72;67.43;103162.25;2101786;28;45719;-64
2023/02/12 01:33:04;;;;;;;;;16.25;16.25;;;;;10.73;67.40;103164.94;2104324;27;46326;-63
2023/02/12 01:34:06;;;;;;;;;19.50;17.25;;;;;10.74;67.73;103164.06;2103511;27;46064;-64
2023/02/12 01:35:09;;;;;;;;;20.20;18.20;;;;;10.76;67.34;103164.97;2101409;28;46411;-66
2023/02/12 01:36:10;;;;;;;;;12.00;9.80;;;;;10.76;67.66;103158.78;2104838;27;46593;-63
2023/02/12 01:37:10;;;;;;;;;17.00;14.50;;;;;10.75;67.44;103164.97;2104388;27;46370;-64
2023/02/12 01:38:10;;;;;;;;;15.00;15.00;;;;;10.74;67.49;103158.75;2104916;27;46308;-64
2023/02/12 01:39:11;;;;;;;;;17.75;16.00;;;;;10.74;67.22;103161.41;2104947;27;46587;-64
2023/02/12 01:40:14;;;;;;;;;16.50;16.50;;;;;10.74;67.55;103148.13;2103522;27;46972;-65
2023/02/12 01:41:26;;;;;;;;;12.80;12.40;;;;;10.75;67.33;103155.22;2110232;27;46778;-64
2023/02/12 01:42:27;;;;;;;;;18.00;18.00;;;;;10.76;67.25;103161.44;2105433;27;46547;-64
2023/02/12 01:43:27;;;;;;;;;19.75;18.25;;;;;10.76;67.14;103162.31;2104072;28;46720;-64
2023/02/12 01:44:29;;;;;;;;;13.75;11.50;;;;;10.76;67.26;103164.97;2104639;27;45764;-63
2023/02/12 01:45:44;;;;;;;;;14.00;13.40;;;;;10.76;67.23;103157.00;2104119;28;46599;-63
2023/02/12 01:46:47;;;;;;;;;14.20;13.60;;;;;10.75;66.98;103160.53;2100630;28;46511;-64
2023/02/12 01:47:47;;;;;;;;;9.80;8.80;;;;;10.74;67.00;103157.84;2096094;28;46487;-63
2023/02/12 01:48:47;;;;;;;;;7.75;7.50;;;;;10.72;66.83;103151.63;2103612;28;46664;-63
2023/02/12 01:49:48;;;;;;;;;5.00;5.00;;;;;10.70;66.79;103159.59;2103950;28;46218;-64
2023/02/12 01:50:51;;;;;;;;;6.00;4.67;;;;;10.71;66.69;103155.16;2112565;27;46719;-64
2023/02/12 01:51:57;;;;;;;;;6.00;6.00;;;;;10.70;66.60;103156.03;2118559;27;45942;-64
2023/02/12 01:52:58;;;;;;;;;6.00;5.25;;;;;10.71;66.57;103156.06;2106683;27;46371;-64
2023/02/12 01:54:03;;;;;;;;;4.33;4.33;;;;;10.72;66.43;103148.97;2113114;27;46516;-63
2023/02/12 01:55:08;;;;;;;;;6.50;5.50;;;;;10.73;66.52;103154.31;2106376;27;46696;-63
2023/02/12 01:56:09;;;;;;;;;5.75;5.75;;;;;10.74;66.27;103153.44;2104718;28;46882;-63
2023/02/12 01:57:11;;;;;;;;;6.67;6.67;;;;;10.76;66.55;103154.34;2104491;27;46399;-64
2023/02/12 01:58:12;;;;;;;;;4.50;4.50;;;;;10.76;66.16;103151.69;2104130;28;46656;-64
2023/02/12 01:59:13;;;;;;;;;5.75;5.75;;;;;10.76;65.95;103148.16;2105378;27;46309;-64
2023/02/12 02:00:18;;;;;;;;;5.67;5.67;;;;;10.75;66.27;103146.38;2097717;28;46117;-64
2023/02/12 02:01:22;;;;;;;;;5.00;3.75;;;;;10.76;66.16;103151.69;2099834;28;46800;-63
2023/02/12 02:02:23;;;;;;;;;5.80;5.80;;;;;10.74;65.88;103150.78;2104334;28;46960;-64
2023/02/12 02:03:23;;;;;;;;;5.60;5.60;;;;;10.74;66.28;103137.50;2099151;28;46707;-64
2023/02/12 02:04:28;;;;;;;;;6.00;4.00;;;;;10.76;66.09;103140.19;2105633;27;46674;-63
2023/02/12 02:05:56;;;;;;;;;4.50;4.50;;;;;10.76;66.00;103146.38;2112951;27;46493;-64
2023/02/12 02:07:00;;;;;;;;;6.20;5.40;;;;;10.76;65.87;103146.38;2097610;28;46656;-62
2023/02/12 02:08:00;;;;;;;;;3.40;2.80;;;;;10.76;66.25;103148.16;2110327;27;47659;-63
2023/02/12 02:09:02;;;;;;;;;5.33;5.33;;;;;10.77;65.81;103141.97;2113885;27;46506;-64
2023/02/12 02:10:03;;;;;;;;;4.33;4.33;;;;;10.77;66.08;103145.50;2103418;28;46537;-62
2023/02/12 02:14:31;;;;;;;;;5.33;5.33;;;;;10.77;65.97;103142.84;2105781;28;46566;-64
2023/02/12 02:15:03;;;;;;;;;2.00;2.00;;;;;10.73;65.92;103141.03;2104014;28;46659;-63
2023/02/12 02:16:21;;;;;;;;;3.75;3.75;;;;;10.76;65.77;103145.50;2105456;27;46704;-62
2023/02/12 02:17:33;;;;;;;;;4.25;4.25;;;;;10.77;65.79;103137.53;2104331;28;46321;-63
2023/02/12 02:18:46;;;;;;;;;3.00;3.00;;;;;10.78;65.81;103133.13;2105852;28;46918;-64
2023/02/12 02:20:00;;;;;;;;;5.00;5.00;;;;;10.79;65.58;103140.22;2099724;27;48264;-63
2023/02/12 02:21:34;;;;;;;;;7.25;4.50;;;;;10.80;65.81;103140.28;2105965;28;46503;-64
2023/02/12 02:23:02;;;;;;;;;5.75;4.50;;;;;10.82;65.67;103137.63;2105736;28;46781;-63
2023/02/12 02:24:24;;;;;;;;;2.75;2.75;;;;;10.82;65.67;103137.63;2103742;27;46956;-64
2023/02/12 02:25:52;;;;;;;;;3.25;3.25;;;;;10.81;65.55;103135.84;2105545;28;46575;-63
2023/02/12 02:27:19;;;;;;;;;3.00;3.00;;;;;10.81;65.75;103144.72;2102401;27;46832;-63
2023/02/12 02:28:43;;;;;;;;;3.00;3.00;;;;;10.82;65.58;103129.69;2087596;28;46432;-63
2023/02/12 02:30:07;;;;;;;;;3.00;3.00;;;;;10.82;65.25;103141.19;2081232;28;46403;-62
2023/02/12 02:31:16;;;;;;;;;3.00;3.00;;;;;10.81;65.65;103131.44;2080424;28;46922;-63
2023/02/12 02:32:23;;;;;;;;;3.00;3.00;;;;;10.83;65.77;103131.47;2088868;28;46847;-64
2023/02/12 02:33:42;;;;;;;;;3.75;3.25;;;;;10.82;65.34;103130.56;2088591;28;46818;-63
2023/02/12 02:34:51;;;;;;;;;4.00;4.00;;;;;10.82;65.40;103132.31;2087901;28;45820;-63
2023/02/12 02:35:54;;;;;;;;;4.00;4.00;;;;;10.82;65.32;103130.56;2090563;28;46785;-63
2023/02/12 02:37:14;;;;;;;;;3.25;3.25;;;;;10.83;65.42;103124.38;2089524;28;47771;-63
2023/02/12 02:38:41;;;;;;;;;4.00;3.00;;;;;10.86;65.71;103131.50;2083428;28;46531;-62
2023/02/12 02:39:49;;;;;;;;;3.50;3.50;;;;;10.88;65.37;103132.41;2081224;28;46809;-62
2023/02/12 02:41:05;;;;;;;;;3.75;3.00;;;;;10.89;65.48;103128.88;2079801;28;46295;-63
2023/02/12 02:42:16;;;;;;;;;4.00;4.00;;;;;10.91;65.42;103122.72;2079338;28;46239;-64
2023/02/12 02:43:27;;;;;;;;;5.00;3.50;;;;;10.92;65.30;103128.91;2086974;28;46075;-63
2023/02/12 02:44:38;;;;;;;;;4.25;3.25;;;;;10.93;65.37;103122.78;2086930;28;47007;-64
2023/02/12 02:45:49;;;;;;;;;6.00;2.75;;;;;10.93;65.46;103128.09;2079767;28;45367;-64
2023/02/12 02:46:53;;;;;;;;;5.75;5.25;;;;;10.94;65.28;103121.00;2079720;28;46921;-62
2023/02/12 02:48:07;;;;;;;;;4.50;4.00;;;;;10.96;65.10;103129.88;2087925;28;46272;-63
2023/02/12 02:49:15;;;;;;;;;5.00;4.75;;;;;10.96;65.18;103114.84;2079697;28;46449;-63
2023/02/12 02:50:21;;;;;;;;;4.25;4.25;;;;;10.97;65.23;103113.06;2080697;28;45787;-63
2023/02/12 02:51:36;;;;;;;;;4.50;4.00;;;;;11.00;65.14;103121.09;2087334;28;46546;-61
2023/02/12 02:52:47;;;;;;;;;2.00;2.00;;;;;10.99;65.07;103120.19;2085300;28;46437;-63
2023/02/12 02:53:55;;;;;;;;;4.25;4.00;;;;;11.02;65.14;103127.31;2079759;28;46566;-62
2023/02/12 02:55:02;;;;;;;;;4.00;4.00;;;;;11.02;65.05;103120.22;2085064;28;46877;-62
2023/02/12 02:56:07;;;;;;;;;3.00;3.00;;;;;11.01;64.99;103122.88;2088107;28;46350;-63
2023/02/12 02:57:14;;;;;;;;;5.00;3.00;;;;;11.01;64.96;103125.53;2081060;28;46353;-62
2023/02/12 02:58:24;;;;;;;;;2.50;2.50;;;;;11.01;65.15;103123.75;2084543;28;46880;-62
2023/02/12 02:59:31;;;;;;;;;3.00;3.00;;;;;11.01;64.78;103123.75;2085219;28;46932;-63
2023/02/12 03:00:37;;;;;;;;;2.25;2.25;;;;;11.01;64.84;103122.88;2070884;28;46285;-64
2023/02/12 03:01:51;;;;;;;;;4.75;3.25;;;;;11.00;64.88;103119.31;2077701;28;46538;-62
2023/02/12 03:02:58;;;;;;;;;2.75;2.75;;;;;11.01;64.96;103117.56;2087534;28;46372;-63
2023/02/12 03:04:02;;;;;;;;;3.00;3.00;;;;;11.00;64.79;103121.09;2087574;28;46726;-63
2023/02/12 03:05:16;;;;;;;;;3.25;3.25;;;;;11.00;64.98;103119.31;2087510;28;46633;-64
2023/02/12 03:06:28;;;;;;;;;3.00;3.00;;;;;11.00;65.06;103113.09;2100972;28;46467;-64
2023/02/12 03:07:36;;;;;;;;;3.00;3.00;;;;;10.99;64.80;103120.19;2104635;28;46360;-64
2023/02/12 03:08:42;;;;;;;;;3.50;3.00;;;;;11.00;64.95;103121.97;2101242;28;46377;-64
2023/02/12 03:09:48;;;;;;;;;2.25;2.25;;;;;11.01;64.82;103123.75;2097524;28;46589;-62
2023/02/12 03:10:53;;;;;;;;;2.75;2.75;;;;;11.02;64.96;103129.97;2098674;28;46156;-64
2023/02/12 03:12:02;;;;;;;;;3.00;3.00;;;;;11.02;64.80;103122.00;2105474;28;46314;-62
2023/02/12 03:13:13;;;;;;;;;2.75;2.75;;;;;11.03;65.09;103121.13;2105821;27;45953;-61
2023/02/12 03:14:19;;;;;;;;;6.25;3.75;;;;;11.05;65.25;103124.69;2103923;28;46416;-62
2023/02/12 03:15:42;;;;;;;;;2.75;2.75;;;;;11.05;64.82;103108.75;2105050;28;46783;-63
2023/02/12 03:16:55;;;;;;;;;4.50;4.50;;;;;11.05;64.88;103112.31;2104578;28;46456;-62
2023/02/12 03:17:57;;;;;;;;;2.25;2.25;;;;;11.06;64.69;103106.13;2101652;28;46871;-63
2023/02/12 03:19:05;;;;;;;;;4.00;4.00;;;;;11.07;64.76;103109.69;2099294;28;46842;-63
2023/02/12 03:20:29;;;;;;;;;3.50;3.50;;;;;11.09;64.94;103110.59;2100168;27;46583;-63
2023/02/12 03:21:38;;;;;;;;;4.50;3.75;;;;;11.11;64.65;103122.13;2097039;28;46485;-61
2023/02/12 03:22:45;;;;;;;;;4.25;4.25;;;;;11.11;64.91;103111.50;2099071;28;46895;-63
2023/02/12 03:24:12;;;;;;;;;4.25;4.00;;;;;11.12;64.76;103113.28;2114115;27;48347;-63
2023/02/12 03:25:15;;;;;;;;;4.00;3.00;;;;;11.12;64.58;103116.84;2083839;28;45716;-64
2023/02/12 03:26:22;;;;;;;;;6.00;5.75;;;;;11.12;64.62;103114.19;2079293;28;46733;-64
2023/02/12 03:27:30;;;;;;;;;6.00;6.00;;;;;11.12;64.54;103111.53;2078986;28;46565;-63
2023/02/12 03:28:34;;;;;;;;;4.50;4.00;;;;;11.13;64.68;103112.41;2077924;28;46583;-63
2023/02/12 03:29:35;;;;;;;;;3.50;3.50;;;;;11.13;64.55;103107.09;2079341;28;46364;-64
2023/02/12 03:30:40;;;;;;;;;5.33;5.33;;;;;11.14;64.53;103108.88;2076812;28;46477;-64
2023/02/12 03:31:51;;;;;;;;;3.75;3.75;;;;;11.14;64.51;103108.88;2071435;28;45964;-63
2023/02/12 03:33:07;;;;;;;;;5.75;5.75;;;;;11.14;64.50;103104.47;2074856;28;46828;-65
2023/02/12 03:34:13;;;;;;;;;4.25;4.25;;;;;11.15;64.73;103108.00;2077972;28;46732;-63
2023/02/12 03:35:21;;;;;;;;;5.00;5.00;;;;;11.14;64.47;103111.53;2078923;28;46323;-63
2023/02/12 03:36:44;;;;;;;;;5.00;5.00;;;;;11.13;64.56;103099.13;2079753;28;46821;-63
2023/02/12 03:38:08;;;;;;;;;4.75;4.00;;;;;11.14;64.70;103099.16;2078970;28;46769;-63
2023/02/12 03:39:43;;;;;;;;;3.75;2.50;;;;;11.15;64.50;103100.94;2078645;28;46791;-63
2023/02/12 03:41:03;;;;;;;;;6.50;6.50;;;;;11.16;64.52;103101.81;2054605;28;47062;-63
2023/02/12 03:42:17;;;;;;;;;6.00;5.75;;;;;11.17;64.66;103100.94;2054393;28;46862;-62
2023/02/12 03:43:23;;;;;;;;;9.25;6.75;;;;;11.17;64.65;103103.59;2055061;28;45759;-62
2023/02/12 03:44:26;;;;;;;;;5.00;5.00;;;;;11.15;64.38;103098.28;2046661;28;45742;-62
2023/02/12 03:45:59;;;;;;;;;6.50;6.50;;;;;11.14;64.78;103099.16;2047122;28;46946;-63
2023/02/12 03:47:04;;;;;;;;;6.00;5.25;;;;;11.13;64.56;103100.03;2052593;28;46639;-63
2023/02/12 03:48:22;;;;;;;;;6.75;6.75;;;;;11.11;64.83;103099.09;2054690;28;47043;-63
2023/02/12 03:49:30;;;;;;;;;10.80;9.60;;;;;11.12;64.65;103102.66;2049587;28;46612;-63
2023/02/12 03:50:45;;;;;;;;;6.25;6.25;;;;;11.11;64.77;103099.09;2051494;28;46328;-64
2023/02/12 03:51:46;;;;;;;;;9.25;9.00;;;;;11.11;64.76;103096.44;2046616;28;46254;-62
2023/02/12 03:52:49;;;;;;;;;10.33;8.67;;;;;11.11;64.80;103099.09;2050902;28;46294;-64
2023/02/12 03:53:50;;;;;;;;;8.00;7.50;;;;;11.12;64.76;103094.69;2054862;28;45634;-63
2023/02/12 03:54:51;;;;;;;;;9.40;6.20;;;;;11.13;64.77;103099.13;2049657;28;46271;-62
2023/02/12 03:55:59;;;;;;;;;14.00;9.50;;;;;11.13;64.69;103100.03;2054696;28;46630;-64
2023/02/12 03:57:06;;;;;;;;;8.00;7.40;;;;;11.14;64.97;103099.16;2054728;28;46397;-63
2023/02/12 03:58:11;;;;;;;;;7.80;7.80;;;;;11.14;65.01;103096.50;2054816;28;46569;-64
2023/02/12 03:59:12;;;;;;;;;9.00;9.00;;;;;11.15;64.75;103102.69;2041240;28;46467;-63
2023/02/12 04:00:23;;;;;;;;;9.00;9.00;;;;;11.15;64.72;103102.69;2038803;28;46772;-63
2023/02/12 04:01:23;;;;;;;;;11.80;9.00;;;;;11.15;64.85;103097.38;2047825;28;46392;-63
2023/02/12 04:02:24;;;;;;;;;13.50;11.75;;;;;11.14;65.07;103101.81;2047868;28;46650;-64
2023/02/12 04:03:25;;;;;;;;;12.80;9.60;;;;;11.14;64.89;103096.50;2069628;28;46379;-62
2023/02/12 04:04:26;;;;;;;;;10.50;10.50;;;;;11.14;64.97;103095.59;2070849;28;46161;-63
2023/02/12 04:05:27;;;;;;;;;9.40;9.40;;;;;11.15;65.15;103097.38;2075537;28;46442;-62
2023/02/12 04:06:28;;;;;;;;;13.50;11.00;;;;;11.14;64.94;103096.50;2078632;28;46441;-63
2023/02/12 04:07:29;;;;;;;;;14.00;13.25;;;;;11.15;64.84;103094.72;2070521;28;46888;-63
2023/02/12 04:08:31;;;;;;;;;9.00;9.00;;;;;11.14;65.07;103099.16;2070837;28;46350;-63
2023/02/12 04:09:31;;;;;;;;;12.20;9.80;;;;;11.13;64.98;103097.34;2070158;28;46811;-63
2023/02/12 04:10:45;;;;;;;;;11.50;11.25;;;;;11.15;65.07;103100.94;2070942;28;46276;-63
2023/02/12 04:12:07;;;;;;;;;17.00;13.20;;;;;11.16;65.07;103099.16;2070172;28;46912;-63
2023/02/12 04:13:23;;;;;;;;;16.00;14.20;;;;;11.17;65.10;103095.63;2070897;28;46663;-63
2023/02/12 04:14:48;;;;;;;;;12.20;10.20;;;;;11.18;64.94;103094.78;2070638;28;46721;-63
2023/02/12 04:16:28;;;;;;;;;12.20;11.00;;;;;11.18;64.92;103097.44;2070664;28;46890;-63
2023/02/12 04:17:42;;;;;;;;;12.80;11.60;;;;;11.17;64.88;103095.63;2061547;28;46331;-64
2023/02/12 04:18:45;;;;;;;;;10.60;9.80;;;;;11.18;64.94;103100.09;2062357;28;47029;-64
2023/02/12 04:19:54;;;;;;;;;9.00;9.00;;;;;11.17;64.86;103099.19;2054199;28;46243;-64
2023/02/12 04:21:14;;;;;;;;;15.80;11.00;;;;;11.16;64.97;103102.72;2060612;28;45747;-63
2023/02/12 04:22:17;;;;;;;;;14.00;13.20;;;;;11.16;65.28;103107.13;2059130;28;46477;-63
2023/02/12 04:23:33;;;;;;;;;16.00;14.60;;;;;11.17;65.19;103100.94;2055396;28;46485;-63
2023/02/12 04:24:57;;;;;;;;;13.80;13.20;;;;;11.16;65.26;103099.16;2063690;28;46527;-62
2023/02/12 04:26:10;;;;;;;;;10.80;9.00;;;;;11.15;65.02;103102.69;2059543;28;46892;-63
2023/02/12 04:27:28;;;;;;;;;15.80;13.60;;;;;11.15;65.07;103097.38;2068543;28;46517;-64
2023/02/12 04:28:44;;;;;;;;;15.80;14.20;;;;;11.16;65.25;103101.81;2060292;28;46568;-63
2023/02/12 04:29:56;;;;;;;;;16.40;14.80;;;;;11.16;65.28;103108.03;2057179;28;47083;-63
2023/02/12 04:31:19;;;;;;;;;14.40;13.20;;;;;11.16;65.27;103102.72;2061912;28;47025;-63
2023/02/12 04:32:29;;;;;;;;;12.80;12.40;;;;;11.15;64.97;103100.03;2066667;28;46367;-63
2023/02/12 04:34:01;;;;;;;;;15.80;14.80;;;;;11.13;65.18;103100.03;2069641;28;46971;-64
2023/02/12 04:35:14;;;;;;;;;15.00;15.00;;;;;11.12;65.32;103098.22;2068993;28;46404;-63
2023/02/12 04:36:22;;;;;;;;;17.00;14.20;;;;;11.11;65.36;103099.09;2064318;28;47333;-63
2023/02/12 04:37:30;;;;;;;;;17.20;13.80;;;;;11.10;65.42;103097.31;2063124;28;46482;-63
2023/02/12 04:38:42;;;;;;;;;17.40;14.40;;;;;11.09;65.24;103103.50;2070377;28;46215;-63
2023/02/12 04:39:44;;;;;;;;;18.60;16.40;;;;;11.08;65.26;103099.06;2067439;28;46595;-62
2023/02/12 04:40:44;;;;;;;;;3.40;2.00;;;;;11.09;65.29;103106.16;2065521;28;46437;-64
2023/02/12 04:41:45;;;;;;;;;16.75;15.75;;;;;11.07;65.63;103105.25;2069934;28;46330;-64
2023/02/12 04:42:48;;;;;;;;;14.25;14.25;;;;;11.08;65.55;103107.03;2057830;28;45938;-63
2023/02/12 04:43:48;;;;;;;;;18.20;16.20;;;;;11.08;65.66;103106.16;2058179;28;46922;-64
2023/02/12 04:44:49;;;;;;;;;12.75;12.75;;;;;11.08;65.66;103104.38;2070182;28;46396;-63
2023/02/12 04:45:49;;;;;;;;;17.00;16.00;;;;;11.09;65.41;103106.16;2065652;28;46254;-63
2023/02/12 04:46:50;;;;;;;;;16.50;15.00;;;;;11.10;65.48;103107.94;2062123;28;46601;-64
2023/02/12 04:47:51;;;;;;;;;13.40;13.40;;;;;11.10;65.38;103104.41;2060793;28;46291;-64
2023/02/12 04:48:58;;;;;;;;;15.50;15.50;;;;;11.10;65.46;103107.94;2061391;28;46262;-65
2023/02/12 04:49:58;;;;;;;;;15.40;14.40;;;;;11.09;65.50;103099.97;2070840;28;46765;-63
2023/02/12 04:50:59;;;;;;;;;15.25;15.25;;;;;11.08;65.50;103101.72;2070397;28;45924;-64
2023/02/12 04:51:59;;;;;;;;;15.75;14.75;;;;;11.08;65.55;103099.06;2070861;28;46674;-63
2023/02/12 04:52:59;;;;;;;;;14.50;14.00;;;;;11.07;65.69;103105.25;2070722;28;46796;-63
2023/02/12 04:54:00;;;;;;;;;18.00;18.00;;;;;11.08;65.77;103099.06;2061802;28;46215;-63
2023/02/12 04:55:00;;;;;;;;;17.50;14.50;;;;;11.09;65.66;103100.84;2082688;28;45567;-63
2023/02/12 04:56:00;;;;;;;;;18.50;16.25;;;;;11.09;65.71;103102.63;2104783;28;46364;-62
2023/02/12 04:57:01;;;;;;;;;16.00;16.00;;;;;11.09;65.76;103100.84;2104151;28;46313;-62
2023/02/12 04:58:02;;;;;;;;;20.20;16.40;;;;;11.08;65.64;103099.06;2105085;28;46919;-62
2023/02/12 04:59:03;;;;;;;;;19.50;17.50;;;;;11.08;65.77;103099.06;2105045;28;45674;-62
2023/02/12 05:00:05;;;;;;;;;14.80;14.20;;;;;11.08;65.49;103096.41;2099658;28;46853;-62
2023/02/12 05:01:07;;;;;;;;;15.60;14.00;;;;;11.08;65.65;103101.72;2104698;28;46541;-62
2023/02/12 05:02:08;;;;;;;;;17.80;17.80;;;;;11.08;65.46;103101.72;2100665;27;46245;-62
2023/02/12 05:03:08;;;;;;;;;15.25;14.50;;;;;11.08;65.75;103101.72;2102936;28;46581;-64
2023/02/12 05:04:12;;;;;;;;;14.50;13.25;;;;;11.07;65.50;103093.75;2097335;27;47159;-65
2023/02/12 05:05:12;;;;;;;;;17.40;16.00;;;;;11.04;65.79;103094.56;2099341;28;45654;-63
2023/02/12 05:06:12;;;;;;;;;17.75;16.00;;;;;11.03;65.55;103095.44;2104452;28;46540;-63